createdAt,value
2018-05-03T00:00:45.730Z,13.64
2018-05-03T00:01:45.729Z,13.63
2018-05-03T00:02:45.719Z,13.62
2018-05-03T00:03:45.829Z,13.61
2018-05-03T00:04:45.705Z,13.58
2018-05-03T00:05:45.688Z,13.59
2018-05-03T00:06:45.722Z,13.58
2018-05-03T00:07:45.844Z,13.58
2018-05-03T00:08:45.714Z,13.57
2018-05-03T00:09:45.830Z,13.58
2018-05-03T00:10:45.757Z,13.58
2018-05-03T00:11:45.754Z,13.59
2018-05-03T00:12:45.726Z,13.6
2018-05-03T00:13:45.721Z,13.59
2018-05-03T00:14:45.737Z,13.58
2018-05-03T00:15:45.762Z,13.58
2018-05-03T00:16:45.753Z,13.56
2018-05-03T00:17:45.728Z,13.57
2018-05-03T00:18:45.726Z,13.58
2018-05-03T00:19:45.732Z,13.57
2018-05-03T00:20:45.750Z,13.57
2018-05-03T00:21:45.723Z,13.56
2018-05-03T00:22:45.722Z,13.58
2018-05-03T00:23:45.774Z,13.59
2018-05-03T00:24:45.726Z,13.58
2018-05-03T00:25:45.715Z,13.58
2018-05-03T00:26:45.930Z,13.58
2018-05-03T00:27:45.731Z,13.59
2018-05-03T00:28:45.719Z,13.59
2018-05-03T00:29:45.718Z,13.59
2018-05-03T00:30:45.751Z,13.59
2018-05-03T00:31:45.844Z,13.59
2018-05-03T00:32:45.704Z,13.58
2018-05-03T00:33:45.858Z,13.56
2018-05-03T00:34:45.758Z,13.56
2018-05-03T00:35:45.750Z,13.56
2018-05-03T00:36:45.732Z,13.53
2018-05-03T00:37:45.898Z,13.55
2018-05-03T00:38:45.711Z,13.55
2018-05-03T00:39:45.736Z,13.51
2018-05-03T00:40:45.718Z,13.53
2018-05-03T00:41:45.901Z,13.5
2018-05-03T00:42:45.725Z,13.5
2018-05-03T00:43:45.721Z,13.5
2018-05-03T00:44:45.803Z,13.5
2018-05-03T00:45:46.215Z,13.51
2018-05-03T00:46:45.720Z,13.5
2018-05-03T00:47:45.728Z,13.5
2018-05-03T00:48:45.723Z,13.5
2018-05-03T00:49:45.732Z,13.49
2018-05-03T00:50:45.729Z,13.49
2018-05-03T00:51:45.735Z,13.46
2018-05-03T00:52:45.718Z,13.5
2018-05-03T00:53:45.736Z,13.5
2018-05-03T00:54:45.744Z,13.51
2018-05-03T00:55:45.708Z,13.5
2018-05-03T00:56:45.723Z,13.51
2018-05-03T00:57:45.739Z,13.55
2018-05-03T00:58:45.753Z,13.52
2018-05-03T00:59:45.763Z,13.52
2018-05-03T01:00:45.728Z,13.51
2018-05-03T01:01:45.709Z,13.5
2018-05-03T01:02:45.820Z,13.5
2018-05-03T01:03:45.726Z,13.5
2018-05-03T01:04:45.719Z,13.48
2018-05-03T01:05:45.724Z,13.44
2018-05-03T01:06:45.726Z,13.42
2018-05-03T01:07:45.766Z,13.43
2018-05-03T01:08:45.749Z,13.4
2018-05-03T01:09:45.711Z,13.42
2018-05-03T01:10:45.757Z,13.37
2018-05-03T01:11:45.729Z,13.38
2018-05-03T01:12:45.773Z,13.38
2018-05-03T01:13:45.772Z,13.34
2018-05-03T01:14:45.731Z,13.32
2018-05-03T01:15:45.759Z,13.31
2018-05-03T01:16:45.789Z,13.28
2018-05-03T01:17:45.768Z,13.26
2018-05-03T01:18:45.758Z,13.23
2018-05-03T01:19:45.771Z,13.24
2018-05-03T01:20:45.836Z,13.21
2018-05-03T01:21:45.766Z,13.23
2018-05-03T01:22:45.734Z,13.2
2018-05-03T01:23:45.815Z,13.2
2018-05-03T01:24:45.715Z,13.19
2018-05-03T01:25:45.811Z,13.17
2018-05-03T01:26:45.762Z,13.15
2018-05-03T01:27:45.971Z,13.12
2018-05-03T01:28:45.753Z,13.14
2018-05-03T01:29:45.737Z,13.13
2018-05-03T01:30:45.802Z,13.15
2018-05-03T01:31:45.753Z,13.15
2018-05-03T01:32:45.744Z,13.15
2018-05-03T01:33:45.753Z,13.15
2018-05-03T01:34:45.723Z,13.18
2018-05-03T01:35:45.722Z,13.16
2018-05-03T01:36:45.729Z,13.15
2018-05-03T01:37:45.736Z,13.16
2018-05-03T01:38:45.832Z,13.19
2018-05-03T01:39:45.741Z,13.19
2018-05-03T01:40:45.742Z,13.18
2018-05-03T01:41:45.756Z,13.18
2018-05-03T01:42:45.764Z,13.15
2018-05-03T01:43:45.758Z,13.18
2018-05-03T01:44:45.739Z,13.14
2018-05-03T01:45:45.780Z,13.16
2018-05-03T01:46:45.770Z,13.17
2018-05-03T01:47:45.767Z,13.17
2018-05-03T01:48:45.922Z,13.18
2018-05-03T01:49:45.987Z,13.18
2018-05-03T01:50:45.761Z,13.16
2018-05-03T01:51:45.758Z,13.18
2018-05-03T01:52:45.782Z,13.19
2018-05-03T01:53:45.799Z,13.18
2018-05-03T01:54:46.514Z,13.16
2018-05-03T01:55:45.756Z,13.2
2018-05-03T01:56:45.777Z,13.2
2018-05-03T01:57:45.766Z,13.2
2018-05-03T01:58:45.775Z,13.22
2018-05-03T01:59:45.752Z,13.21
2018-05-03T02:00:45.765Z,13.21
2018-05-03T02:01:45.802Z,13.21
2018-05-03T02:02:45.763Z,13.2
2018-05-03T02:03:45.787Z,13.18
2018-05-03T02:04:45.755Z,13.18
2018-05-03T02:05:45.749Z,13.16
2018-05-03T02:06:45.859Z,13.17
2018-05-03T02:07:45.773Z,13.16
2018-05-03T02:08:45.769Z,13.16
2018-05-03T02:09:45.748Z,13.15
2018-05-03T02:10:45.794Z,13.15
2018-05-03T02:11:45.757Z,13.12
2018-05-03T02:12:45.780Z,13.13
2018-05-03T02:13:45.744Z,13.12
2018-05-03T02:14:45.791Z,13.14
2018-05-03T02:15:45.738Z,13.13
2018-05-03T02:16:45.767Z,13.14
2018-05-03T02:17:45.852Z,13.14
2018-05-03T02:18:45.763Z,13.15
2018-05-03T02:19:45.763Z,13.15
2018-05-03T02:20:45.791Z,13.16
2018-05-03T02:21:45.798Z,13.16
2018-05-03T02:22:45.775Z,13.16
2018-05-03T02:23:45.786Z,13.15
2018-05-03T02:24:45.746Z,13.15
2018-05-03T02:25:45.774Z,13.15
2018-05-03T02:26:45.760Z,13.14
2018-05-03T02:27:45.752Z,13.14
2018-05-03T02:28:45.774Z,13.13
2018-05-03T02:29:45.758Z,13.13
2018-05-03T02:30:45.798Z,13.1
2018-05-03T02:31:45.877Z,13.08
2018-05-03T02:32:45.786Z,13.06
2018-05-03T02:33:45.816Z,13.04
2018-05-03T02:34:45.771Z,13.02
2018-05-03T02:35:45.791Z,13.01
2018-05-03T02:36:45.801Z,12.99
2018-05-03T02:37:45.755Z,12.99
2018-05-03T02:38:45.790Z,12.99
2018-05-03T02:39:45.861Z,12.98
2018-05-03T02:40:45.806Z,12.97
2018-05-03T02:41:45.784Z,12.98
2018-05-03T02:42:45.917Z,12.98
2018-05-03T02:43:45.793Z,12.96
2018-05-03T02:44:45.854Z,12.96
2018-05-03T02:45:45.784Z,12.96
2018-05-03T02:46:45.848Z,12.96
2018-05-03T02:47:45.813Z,12.96
2018-05-03T02:48:45.797Z,12.97
2018-05-03T02:49:45.804Z,12.96
2018-05-03T02:50:45.933Z,12.93
2018-05-03T02:51:45.790Z,12.94
2018-05-03T02:52:45.795Z,12.94
2018-05-03T02:53:45.931Z,12.93
2018-05-03T02:54:45.797Z,12.92
2018-05-03T02:55:45.799Z,12.92
2018-05-03T02:56:45.813Z,12.92
2018-05-03T02:57:45.812Z,12.92
2018-05-03T02:58:45.789Z,12.92
2018-05-03T02:59:45.852Z,12.94
2018-05-03T03:00:45.820Z,12.94
2018-05-03T03:01:45.877Z,12.93
2018-05-03T03:02:45.759Z,12.92
2018-05-03T03:03:45.804Z,12.89
2018-05-03T03:04:45.799Z,12.9
2018-05-03T03:05:45.868Z,12.89
2018-05-03T03:06:45.837Z,12.9
2018-05-03T03:07:45.807Z,12.9
2018-05-03T03:08:45.820Z,12.89
2018-05-03T03:09:46.362Z,12.89
2018-05-03T03:10:45.799Z,12.87
2018-05-03T03:11:45.825Z,12.87
2018-05-03T03:12:45.799Z,12.85
2018-05-03T03:13:45.792Z,12.85
2018-05-03T03:14:45.823Z,12.84
2018-05-03T03:15:45.794Z,12.84
2018-05-03T03:16:45.785Z,12.85
2018-05-03T03:17:45.795Z,12.84
2018-05-03T03:18:45.787Z,12.84
2018-05-03T03:19:45.775Z,12.84
2018-05-03T03:20:45.791Z,12.84
2018-05-03T03:21:45.800Z,12.83
2018-05-03T03:22:45.798Z,12.84
2018-05-03T03:23:45.803Z,12.86
2018-05-03T03:24:45.815Z,12.84
2018-05-03T03:25:45.783Z,12.86
2018-05-03T03:26:45.802Z,12.87
2018-05-03T03:27:45.798Z,12.84
2018-05-03T03:28:45.774Z,12.86
2018-05-03T03:29:45.814Z,12.84
2018-05-03T03:30:45.848Z,12.86
2018-05-03T03:31:45.868Z,12.86
2018-05-03T03:32:45.965Z,12.83
2018-05-03T03:33:45.844Z,12.84
2018-05-03T03:34:45.807Z,12.82
2018-05-03T03:35:45.798Z,12.83
2018-05-03T03:36:45.808Z,12.82
2018-05-03T03:37:45.786Z,12.83
2018-05-03T03:38:45.989Z,12.85
2018-05-03T03:39:45.808Z,12.83
2018-05-03T03:40:45.878Z,12.85
2018-05-03T03:41:45.786Z,12.83
2018-05-03T03:42:45.789Z,12.83
2018-05-03T03:43:45.775Z,12.81
2018-05-03T03:44:45.822Z,12.81
2018-05-03T03:45:45.819Z,12.77
2018-05-03T03:46:45.796Z,12.78
2018-05-03T03:47:45.824Z,12.77
2018-05-03T03:48:45.816Z,12.76
2018-05-03T03:49:45.892Z,12.76
2018-05-03T03:50:45.854Z,12.77
2018-05-03T03:51:45.791Z,12.77
2018-05-03T03:52:45.881Z,12.73
2018-05-03T03:53:45.806Z,12.74
2018-05-03T03:54:46.001Z,12.73
2018-05-03T03:55:45.833Z,12.76
2018-05-03T03:56:45.857Z,12.76
2018-05-03T03:57:45.809Z,12.76
2018-05-03T03:58:45.835Z,12.74
2018-05-03T03:59:45.824Z,12.75
2018-05-03T04:00:45.820Z,12.75
2018-05-03T04:01:45.821Z,12.73
2018-05-03T04:02:45.802Z,12.73
2018-05-03T04:03:45.839Z,12.74
2018-05-03T04:04:45.812Z,12.73
2018-05-03T04:05:45.841Z,12.72
2018-05-03T04:06:45.876Z,12.71
2018-05-03T04:07:45.817Z,12.72
2018-05-03T04:08:45.814Z,12.71
2018-05-03T04:09:45.823Z,12.72
2018-05-03T04:10:45.826Z,12.71
2018-05-03T04:11:45.874Z,12.67
2018-05-03T04:12:45.867Z,12.69
2018-05-03T04:13:45.793Z,12.68
2018-05-03T04:14:45.833Z,12.68
2018-05-03T04:15:45.789Z,12.67
2018-05-03T04:16:45.799Z,12.67
2018-05-03T04:17:45.836Z,12.67
2018-05-03T04:18:45.884Z,12.69
2018-05-03T04:19:45.851Z,12.69
2018-05-03T04:20:45.817Z,12.66
2018-05-03T04:21:45.829Z,12.65
2018-05-03T04:22:45.835Z,12.65
2018-05-03T04:23:45.858Z,12.64
2018-05-03T04:24:45.844Z,12.66
2018-05-03T04:25:45.806Z,12.64
2018-05-03T04:26:45.853Z,12.64
2018-05-03T04:27:45.819Z,12.64
2018-05-03T04:28:45.807Z,12.63
2018-05-03T04:29:46.067Z,12.64
2018-05-03T04:30:45.834Z,12.65
2018-05-03T04:31:45.910Z,12.64
2018-05-03T04:32:45.835Z,12.63
2018-05-03T04:33:45.820Z,12.61
2018-05-03T04:34:45.839Z,12.57
2018-05-03T04:35:45.821Z,12.57
2018-05-03T04:36:45.855Z,12.57
2018-05-03T04:37:46.932Z,12.56
2018-05-03T04:38:46.043Z,12.52
2018-05-03T04:39:45.853Z,12.47
2018-05-03T04:40:45.825Z,12.47
2018-05-03T04:41:45.862Z,12.46
2018-05-03T04:42:45.842Z,12.46
2018-05-03T04:43:45.849Z,12.44
2018-05-03T04:44:45.856Z,12.45
2018-05-03T04:45:45.879Z,12.43
2018-05-03T04:46:45.820Z,12.41
2018-05-03T04:47:45.821Z,12.32
2018-05-03T04:48:45.832Z,12.29
2018-05-03T04:49:45.849Z,12.3
2018-05-03T04:50:46.029Z,12.27
2018-05-03T04:51:45.932Z,12.29
2018-05-03T04:52:45.847Z,12.3
2018-05-03T04:53:45.906Z,12.28
2018-05-03T04:54:46.024Z,12.28
2018-05-03T04:55:45.873Z,12.27
2018-05-03T04:56:45.872Z,12.26
2018-05-03T04:57:45.812Z,12.26
2018-05-03T04:58:45.825Z,12.26
2018-05-03T04:59:45.859Z,12.26
2018-05-03T05:00:45.856Z,12.24
2018-05-03T05:01:45.837Z,12.21
2018-05-03T05:02:45.855Z,12.17
2018-05-03T05:03:45.826Z,12.19
2018-05-03T05:04:46.570Z,12.11
2018-05-03T05:05:45.857Z,12.16
2018-05-03T05:06:45.833Z,12.14
2018-05-03T05:07:45.922Z,12.11
2018-05-03T05:08:45.854Z,12.17
2018-05-03T05:09:45.897Z,12.12
2018-05-03T05:10:45.846Z,12.14
2018-05-03T05:11:45.856Z,12.12
2018-05-03T05:12:45.856Z,12.11
2018-05-03T05:13:45.861Z,12.05
2018-05-03T05:14:45.879Z,12.11
2018-05-03T05:15:45.849Z,12.12
2018-05-03T05:16:45.850Z,12.11
2018-05-03T05:17:45.866Z,12.11
2018-05-03T05:18:45.842Z,12.04
2018-05-03T05:19:45.929Z,12.04
2018-05-03T05:20:45.904Z,12.01
2018-05-03T05:21:45.933Z,11.98
2018-05-03T05:22:45.889Z,11.94
2018-05-03T05:23:45.824Z,11.95
2018-05-03T05:24:45.845Z,11.97
2018-05-03T05:25:45.855Z,11.94
2018-05-03T05:26:45.835Z,11.94
2018-05-03T05:27:45.889Z,11.91
2018-05-03T05:28:45.819Z,11.95
2018-05-03T05:29:45.895Z,11.95
2018-05-03T05:30:46.696Z,11.92
2018-05-03T05:31:45.877Z,11.93
2018-05-03T05:32:46.155Z,11.95
2018-05-03T05:33:45.887Z,11.95
2018-05-03T05:34:45.897Z,11.94
2018-05-03T05:35:45.850Z,11.92
2018-05-03T05:36:45.840Z,11.93
2018-05-03T05:37:45.840Z,11.95
2018-05-03T05:38:46.875Z,11.97
2018-05-03T05:39:46.006Z,11.98
2018-05-03T05:40:45.859Z,12
2018-05-03T05:41:45.826Z,11.99
2018-05-03T05:42:45.877Z,11.93
2018-05-03T05:43:45.884Z,11.86
2018-05-03T05:44:45.967Z,11.91
2018-05-03T05:45:45.917Z,11.9
2018-05-03T05:46:45.876Z,11.91
2018-05-03T05:47:45.874Z,11.9
2018-05-03T05:48:45.883Z,11.9
2018-05-03T05:49:45.821Z,11.91
2018-05-03T05:50:45.829Z,11.94
2018-05-03T05:51:45.901Z,11.93
2018-05-03T05:52:45.852Z,11.93
2018-05-03T05:53:45.878Z,11.95
2018-05-03T05:54:45.861Z,11.99
2018-05-03T05:55:45.856Z,12.02
2018-05-03T05:56:46.685Z,12.05
2018-05-03T05:57:45.856Z,12.08
2018-05-03T05:58:45.862Z,12.12
2018-05-03T05:59:45.983Z,12.18
2018-05-03T06:00:45.835Z,12.18
2018-05-03T06:01:46.020Z,12.23
2018-05-03T06:02:45.854Z,12.22
2018-05-03T06:03:45.811Z,12.27
2018-05-03T06:04:45.864Z,12.29
2018-05-03T06:05:45.845Z,12.29
2018-05-03T06:06:45.979Z,12.35
2018-05-03T06:07:45.847Z,12.34
2018-05-03T06:08:45.844Z,12.38
2018-05-03T06:09:45.886Z,12.38
2018-05-03T06:10:45.860Z,12.42
2018-05-03T06:11:45.885Z,12.43
2018-05-03T06:12:45.848Z,12.42
2018-05-03T06:13:45.846Z,12.41
2018-05-03T06:14:45.863Z,12.39
2018-05-03T06:15:45.940Z,12.38
2018-05-03T06:16:45.843Z,12.37
2018-05-03T06:17:45.882Z,12.37
2018-05-03T06:18:45.865Z,12.42
2018-05-03T06:19:45.844Z,12.41
2018-05-03T06:20:45.884Z,12.44
2018-05-03T06:21:45.955Z,12.39
2018-05-03T06:22:45.871Z,12.4
2018-05-03T06:23:45.852Z,12.41
2018-05-03T06:24:45.889Z,12.42
2018-05-03T06:25:45.893Z,12.44
2018-05-03T06:26:45.860Z,12.48
2018-05-03T06:27:45.869Z,12.47
2018-05-03T06:28:45.911Z,12.47
2018-05-03T06:29:45.852Z,12.46
2018-05-03T06:30:45.909Z,12.42
2018-05-03T06:31:45.890Z,12.47
2018-05-03T06:32:45.861Z,12.47
2018-05-03T06:33:45.867Z,12.42
2018-05-03T06:34:47.170Z,12.45
2018-05-03T06:35:45.868Z,12.44
2018-05-03T06:36:45.875Z,12.43
2018-05-03T06:37:45.910Z,12.41
2018-05-03T06:38:46.230Z,12.41
2018-05-03T06:39:45.886Z,12.4
2018-05-03T06:40:45.917Z,12.38
2018-05-03T06:41:45.871Z,12.38
2018-05-03T06:42:45.933Z,12.39
2018-05-03T06:43:45.841Z,12.37
2018-05-03T06:44:45.905Z,12.4
2018-05-03T06:45:45.852Z,12.41
2018-05-03T06:46:45.859Z,12.42
2018-05-03T06:47:45.973Z,12.46
2018-05-03T06:48:45.869Z,12.44
2018-05-03T06:49:45.880Z,12.5
2018-05-03T06:50:45.897Z,12.51
2018-05-03T06:51:45.864Z,12.55
2018-05-03T06:52:45.839Z,12.6
2018-05-03T06:53:45.921Z,12.63
2018-05-03T06:54:46.038Z,12.67
2018-05-03T06:55:45.834Z,12.72
2018-05-03T06:56:45.883Z,12.76
2018-05-03T06:57:45.874Z,12.8
2018-05-03T06:58:45.881Z,12.81
2018-05-03T06:59:45.865Z,12.86
2018-05-03T07:00:45.927Z,12.86
2018-05-03T07:01:45.883Z,12.88
2018-05-03T07:02:45.878Z,12.9
2018-05-03T07:03:45.881Z,12.93
2018-05-03T07:04:45.929Z,12.92
2018-05-03T07:05:45.858Z,12.92
2018-05-03T07:06:45.929Z,12.98
2018-05-03T07:07:45.903Z,12.99
2018-05-03T07:08:45.858Z,13.04
2018-05-03T07:09:45.876Z,13.05
2018-05-03T07:10:45.945Z,13.06
2018-05-03T07:11:45.975Z,13.06
2018-05-03T07:12:45.859Z,13.07
2018-05-03T07:13:45.865Z,13.07
2018-05-03T07:14:45.900Z,13.06
2018-05-03T07:15:45.870Z,13.08
2018-05-03T07:16:45.864Z,13.08
2018-05-03T07:17:45.879Z,13.08
2018-05-03T07:18:45.895Z,13.09
2018-05-03T07:19:45.892Z,13.09
2018-05-03T07:20:45.910Z,13.1
2018-05-03T07:21:45.924Z,13.06
2018-05-03T07:22:45.871Z,13.06
2018-05-03T07:23:46.364Z,13.04
2018-05-03T07:24:45.898Z,13.08
2018-05-03T07:25:45.891Z,13.08
2018-05-03T07:26:45.875Z,13.1
2018-05-03T07:27:45.921Z,13.11
2018-05-03T07:28:45.913Z,13.11
2018-05-03T07:29:45.883Z,13.13
2018-05-03T07:30:45.911Z,13.1
2018-05-03T07:31:45.905Z,13.1
2018-05-03T07:32:45.955Z,13.1
2018-05-03T07:33:45.876Z,13.11
2018-05-03T07:34:46.610Z,13.15
2018-05-03T07:35:46.006Z,13.15
2018-05-03T07:36:45.904Z,13.16
2018-05-03T07:37:45.931Z,13.17
2018-05-03T07:38:45.894Z,13.18
2018-05-03T07:39:45.893Z,13.16
2018-05-03T07:40:47.364Z,13.16
2018-05-03T07:41:45.884Z,13.17
2018-05-03T07:42:45.974Z,13.19
2018-05-03T07:43:45.914Z,13.21
2018-05-03T07:44:45.966Z,13.22
2018-05-03T07:45:46.287Z,13.25
2018-05-03T07:46:45.932Z,13.28
2018-05-03T07:47:45.914Z,13.29
2018-05-03T07:48:45.933Z,13.31
2018-05-03T07:49:45.895Z,13.34
2018-05-03T07:50:45.922Z,13.36
2018-05-03T07:51:45.941Z,13.4
2018-05-03T07:52:45.931Z,13.4
2018-05-03T07:53:45.888Z,13.42
2018-05-03T07:54:45.887Z,13.45
2018-05-03T07:55:45.972Z,13.49
2018-05-03T07:56:46.766Z,13.5
2018-05-03T07:57:45.937Z,13.54
2018-05-03T07:58:45.914Z,13.57
2018-05-03T07:59:45.887Z,13.6
2018-05-03T08:00:45.902Z,13.59
2018-05-03T08:01:45.898Z,13.61
2018-05-03T08:02:45.897Z,13.65
2018-05-03T08:03:45.974Z,13.66
2018-05-03T08:04:46.158Z,13.65
2018-05-03T08:05:45.886Z,13.69
2018-05-03T08:06:45.912Z,13.67
2018-05-03T08:07:46.852Z,13.63
2018-05-03T08:08:45.984Z,13.67
2018-05-03T08:09:45.993Z,13.64
2018-05-03T08:10:45.891Z,13.59
2018-05-03T08:11:45.935Z,13.58
2018-05-03T08:12:45.890Z,13.56
2018-05-03T08:13:45.875Z,13.54
2018-05-03T08:14:45.892Z,13.54
2018-05-03T08:15:45.891Z,13.57
2018-05-03T08:16:45.909Z,13.6
2018-05-03T08:17:45.925Z,13.59
2018-05-03T08:18:45.905Z,13.58
2018-05-03T08:19:45.895Z,13.58
2018-05-03T08:20:45.938Z,13.61
2018-05-03T08:21:45.943Z,13.61
2018-05-03T08:22:45.925Z,13.63
2018-05-03T08:23:45.909Z,13.62
2018-05-03T08:24:45.916Z,13.62
2018-05-03T08:25:45.907Z,13.66
2018-05-03T08:26:45.939Z,13.67
2018-05-03T08:27:46.026Z,13.68
2018-05-03T08:28:45.915Z,13.71
2018-05-03T08:29:45.987Z,13.64
2018-05-03T08:30:45.940Z,13.66
2018-05-03T08:31:46.653Z,13.69
2018-05-03T08:32:45.978Z,13.74
2018-05-03T08:33:45.985Z,13.8
2018-05-03T08:34:45.945Z,13.76
2018-05-03T08:35:45.916Z,13.78
2018-05-03T08:36:45.934Z,13.82
2018-05-03T08:37:45.919Z,13.85
2018-05-03T08:38:45.919Z,13.88
2018-05-03T08:39:45.918Z,13.88
2018-05-03T08:40:45.931Z,13.88
2018-05-03T08:41:46.059Z,13.89
2018-05-03T08:42:45.909Z,13.91
2018-05-03T08:43:45.918Z,13.93
2018-05-03T08:44:45.944Z,13.88
2018-05-03T08:45:45.926Z,13.91
2018-05-03T08:46:45.933Z,13.92
2018-05-03T08:47:45.960Z,13.89
2018-05-03T08:48:45.918Z,13.86
2018-05-03T08:49:45.972Z,13.92
2018-05-03T08:50:45.900Z,13.95
2018-05-03T08:51:45.932Z,14.01
2018-05-03T08:52:45.949Z,14
2018-05-03T08:53:45.949Z,14.11
2018-05-03T08:54:45.973Z,14.18
2018-05-03T08:55:46.485Z,14.25
2018-05-03T08:56:45.939Z,14.34
2018-05-03T08:57:45.944Z,14.35
2018-05-03T08:58:46.094Z,14.36
2018-05-03T08:59:45.985Z,14.44
2018-05-03T09:00:45.907Z,14.5
2018-05-03T09:01:46.714Z,14.55
2018-05-03T09:02:45.957Z,14.61
2018-05-03T09:03:45.953Z,14.7
2018-05-03T09:04:45.924Z,14.63
2018-05-03T09:05:46.109Z,14.61
2018-05-03T09:06:45.938Z,14.68
2018-05-03T09:07:46.471Z,14.72
2018-05-03T09:08:45.942Z,14.78
2018-05-03T09:09:46.084Z,14.81
2018-05-03T09:10:45.963Z,14.84
2018-05-03T09:11:45.972Z,14.85
2018-05-03T09:12:45.947Z,14.91
2018-05-03T09:13:45.927Z,14.88
2018-05-03T09:14:46.068Z,14.9
2018-05-03T09:15:45.977Z,14.93
2018-05-03T09:16:46.001Z,14.9
2018-05-03T09:17:45.976Z,14.99
2018-05-03T09:18:45.947Z,15.01
2018-05-03T09:19:45.953Z,15.09
2018-05-03T09:20:45.932Z,15.16
2018-05-03T09:21:45.919Z,15.17
2018-05-03T09:22:45.950Z,15.25
2018-05-03T09:23:45.946Z,15.28
2018-05-03T09:24:45.942Z,15.35
2018-05-03T09:25:45.932Z,15.35
2018-05-03T09:26:46.335Z,15.42
2018-05-03T09:27:45.947Z,15.41
2018-05-03T09:28:45.951Z,15.4
2018-05-03T09:29:45.992Z,15.32
2018-05-03T09:30:45.937Z,15.34
2018-05-03T09:31:45.953Z,15.34
2018-05-03T09:32:45.927Z,15.33
2018-05-03T09:33:45.961Z,15.35
2018-05-03T09:34:45.956Z,15.33
2018-05-03T09:35:46.007Z,15.41
2018-05-03T09:36:45.964Z,15.43
2018-05-03T09:37:45.933Z,15.42
2018-05-03T09:38:45.957Z,15.44
2018-05-03T09:39:45.964Z,15.4
2018-05-03T09:40:45.995Z,15.39
2018-05-03T09:41:46.041Z,15.39
2018-05-03T09:42:45.946Z,15.41
2018-05-03T09:43:45.943Z,15.44
2018-05-03T09:44:46.630Z,15.46
2018-05-03T09:45:46.031Z,15.49
2018-05-03T09:46:46.005Z,15.56
2018-05-03T09:47:46.117Z,15.61
2018-05-03T09:48:45.963Z,15.5
2018-05-03T09:49:46.095Z,15.49
2018-05-03T09:50:46.046Z,15.56
2018-05-03T09:51:46.042Z,15.6
2018-05-03T09:52:46.094Z,15.66
2018-05-03T09:53:46.326Z,15.69
2018-05-03T09:54:45.992Z,15.61
2018-05-03T09:55:45.977Z,15.57
2018-05-03T09:56:45.937Z,15.64
2018-05-03T09:57:46.067Z,15.6
2018-05-03T09:58:46.019Z,15.66
2018-05-03T09:59:46.079Z,15.66
2018-05-03T10:00:46.012Z,15.71
2018-05-03T10:01:45.980Z,15.74
2018-05-03T10:02:46.010Z,15.8
2018-05-03T10:03:45.949Z,15.8
2018-05-03T10:04:46.813Z,15.84
2018-05-03T10:05:46.063Z,15.81
2018-05-03T10:06:45.985Z,15.77
2018-05-03T10:07:45.989Z,15.77
2018-05-03T10:08:45.968Z,15.79
2018-05-03T10:09:45.974Z,15.8
2018-05-03T10:10:45.997Z,15.85
2018-05-03T10:11:46.002Z,15.93
2018-05-03T10:12:46.023Z,16.04
2018-05-03T10:13:45.957Z,16.04
2018-05-03T10:14:46.005Z,15.96
2018-05-03T10:15:46.030Z,15.99
2018-05-03T10:16:45.994Z,15.98
2018-05-03T10:17:46.020Z,16.06
2018-05-03T10:18:46.125Z,16.15
2018-05-03T10:19:46.108Z,16.17
2018-05-03T10:20:45.973Z,16.2
2018-05-03T10:21:45.980Z,16.29
2018-05-03T10:22:45.998Z,16.3
2018-05-03T10:23:46.114Z,16.27
2018-05-03T10:24:46.042Z,16.3
2018-05-03T10:25:46.009Z,16.19
2018-05-03T10:26:46.022Z,16.28
2018-05-03T10:27:46.023Z,16.24
2018-05-03T10:28:46.015Z,16.25
2018-05-03T10:29:45.948Z,16.25
2018-05-03T10:30:46.017Z,16.29
2018-05-03T10:31:46.051Z,16.3
2018-05-03T10:32:45.989Z,16.35
2018-05-03T10:33:46.014Z,16.42
2018-05-03T10:34:46.005Z,16.43
2018-05-03T10:35:47.264Z,16.54
2018-05-03T10:36:45.971Z,16.58
2018-05-03T10:37:45.979Z,16.51
2018-05-03T10:38:45.962Z,16.5
2018-05-03T10:39:46.008Z,16.5
2018-05-03T10:40:45.993Z,16.5
2018-05-03T10:41:45.996Z,16.53
2018-05-03T10:42:46.001Z,16.62
2018-05-03T10:43:46.276Z,16.67
2018-05-03T10:44:46.005Z,16.7
2018-05-03T10:45:45.988Z,16.7
2018-05-03T10:46:45.987Z,16.73
2018-05-03T10:47:46.002Z,16.77
2018-05-03T10:48:46.011Z,16.77
2018-05-03T10:49:46.009Z,16.73
2018-05-03T10:50:46.007Z,16.71
2018-05-03T10:51:46.020Z,16.72
2018-05-03T10:52:46.059Z,16.84
2018-05-03T10:53:45.965Z,16.91
2018-05-03T10:54:46.106Z,16.97
2018-05-03T10:55:46.044Z,16.99
2018-05-03T10:56:46.079Z,17.07
2018-05-03T10:57:45.994Z,17.13
2018-05-03T10:58:46.031Z,17.21
2018-05-03T10:59:45.997Z,17.23
2018-05-03T11:00:46.051Z,17.29
2018-05-03T11:01:46.065Z,17.37
2018-05-03T11:02:46.054Z,17.37
2018-05-03T11:03:46.291Z,17.49
2018-05-03T11:04:46.039Z,17.43
2018-05-03T11:05:46.032Z,17.38
2018-05-03T11:06:46.035Z,17.47
2018-05-03T11:07:46.032Z,17.34
2018-05-03T11:08:46.067Z,17.31
2018-05-03T11:09:45.993Z,17.28
2018-05-03T11:10:46.020Z,17.31
2018-05-03T11:11:45.977Z,17.41
2018-05-03T11:12:45.986Z,17.49
2018-05-03T11:13:46.004Z,17.53
2018-05-03T11:14:46.098Z,17.52
2018-05-03T11:15:46.018Z,17.46
2018-05-03T11:16:46.512Z,17.54
2018-05-03T11:17:46.099Z,17.65
2018-05-03T11:18:46.046Z,17.75
2018-05-03T11:19:46.034Z,17.72
2018-05-03T11:20:46.121Z,17.75
2018-05-03T11:21:46.018Z,17.9
2018-05-03T11:22:46.048Z,18.03
2018-05-03T11:23:46.204Z,17.94
2018-05-03T11:24:46.115Z,17.86
2018-05-03T11:25:46.042Z,17.9
2018-05-03T11:26:46.007Z,17.97
2018-05-03T11:27:46.102Z,17.98
2018-05-03T11:28:46.141Z,18.04
2018-05-03T11:29:46.194Z,17.96
2018-05-03T11:30:46.146Z,18.06
2018-05-03T11:31:46.027Z,18.12
2018-05-03T11:32:45.984Z,18.15
2018-05-03T11:33:45.996Z,18.19
2018-05-03T11:34:46.062Z,18.25
2018-05-03T11:35:45.994Z,18.21
2018-05-03T11:36:47.265Z,18.31
2018-05-03T11:37:46.023Z,18.41
2018-05-03T11:38:46.014Z,18.42
2018-05-03T11:39:46.063Z,18.41
2018-05-03T11:40:46.068Z,18.38
2018-05-03T11:41:46.014Z,18.4
2018-05-03T11:42:46.964Z,18.39
2018-05-03T11:43:46.025Z,18.29
2018-05-03T11:44:46.022Z,18.36
2018-05-03T11:45:46.100Z,18.38
2018-05-03T11:46:46.016Z,18.49
2018-05-03T11:47:46.088Z,18.5
2018-05-03T11:48:46.698Z,18.48
2018-05-03T11:49:46.020Z,18.46
2018-05-03T11:50:46.036Z,18.39
2018-05-03T11:51:46.022Z,18.37
2018-05-03T11:52:46.073Z,18.54
2018-05-03T11:53:46.030Z,18.43
2018-05-03T11:54:46.138Z,18.53
2018-05-03T11:55:46.080Z,18.59
2018-05-03T11:56:46.023Z,18.6
2018-05-03T11:57:46.231Z,18.6
2018-05-03T11:58:46.026Z,18.66
2018-05-03T11:59:46.136Z,18.77
2018-05-03T12:00:46.077Z,18.85
2018-05-03T12:01:46.000Z,18.87
2018-05-03T12:02:46.024Z,18.83
2018-05-03T12:03:46.013Z,18.89
2018-05-03T12:04:46.185Z,18.71
2018-05-03T12:05:46.046Z,18.8
2018-05-03T12:06:46.298Z,18.69
2018-05-03T12:07:46.142Z,18.71
2018-05-03T12:08:46.053Z,18.66
2018-05-03T12:09:46.163Z,18.53
2018-05-03T12:10:46.072Z,18.53
2018-05-03T12:11:46.791Z,18.53
2018-05-03T12:12:46.105Z,18.49
2018-05-03T12:13:46.104Z,18.53
2018-05-03T12:14:46.152Z,18.64
2018-05-03T12:15:46.116Z,18.73
2018-05-03T12:16:46.069Z,18.89
2018-05-03T12:17:46.086Z,18.85
2018-05-03T12:18:46.165Z,18.88
2018-05-03T12:19:46.063Z,18.9
2018-05-03T12:20:46.061Z,18.95
2018-05-03T12:21:46.067Z,18.91
2018-05-03T12:22:46.078Z,18.82
2018-05-03T12:23:46.077Z,18.97
2018-05-03T12:24:46.067Z,18.91
2018-05-03T12:25:46.105Z,18.9
2018-05-03T12:26:46.191Z,18.98
2018-05-03T12:27:46.040Z,19.08
2018-05-03T12:28:46.175Z,18.98
2018-05-03T12:29:46.075Z,18.95
2018-05-03T12:30:46.043Z,18.9
2018-05-03T12:31:46.094Z,18.92
2018-05-03T12:32:46.071Z,18.94
2018-05-03T12:33:46.021Z,19.04
2018-05-03T12:34:46.444Z,19.02
2018-05-03T12:35:46.067Z,19.06
2018-05-03T12:36:46.076Z,19.23
2018-05-03T12:37:46.147Z,19.36
2018-05-03T12:38:46.146Z,19.31
2018-05-03T12:39:46.034Z,19.38
2018-05-03T12:40:46.068Z,19.58
2018-05-03T12:41:46.064Z,19.5
2018-05-03T12:42:46.049Z,19.58
2018-05-03T12:43:46.032Z,19.47
2018-05-03T12:44:46.041Z,19.47
2018-05-03T12:45:46.033Z,19.57
2018-05-03T12:46:46.046Z,19.46
2018-05-03T12:47:46.108Z,19.48
2018-05-03T12:48:46.044Z,19.41
2018-05-03T12:49:46.036Z,19.37
2018-05-03T12:50:46.040Z,19.46
2018-05-03T12:51:46.527Z,19.48
2018-05-03T12:52:46.078Z,19.49
2018-05-03T12:53:46.091Z,19.44
2018-05-03T12:54:46.060Z,19.43
2018-05-03T12:55:46.052Z,19.44